createdAt,value
2023-03-24T00:00:01.710Z,2.10
2023-03-24T00:02:28.497Z,2.20
2023-03-24T00:04:55.568Z,2.35
2023-03-24T00:07:22.200Z,2.00
2023-03-24T00:09:48.887Z,1.98
2023-03-24T00:12:15.548Z,1.92
2023-03-24T00:14:42.138Z,1.80
2023-03-24T00:17:09.101Z,1.83
2023-03-24T00:19:36.655Z,1.98
2023-03-24T00:22:03.371Z,2.25
2023-03-24T00:24:29.990Z,2.38
2023-03-24T00:26:56.738Z,2.35
2023-03-24T00:29:24.316Z,2.30
2023-03-24T00:31:51.922Z,2.40
2023-03-24T00:34:20.510Z,2.13
2023-03-24T00:36:51.330Z,1.95
2023-03-24T00:39:19.625Z,2.40
2023-03-24T00:41:47.754Z,2.92
2023-03-24T00:46:42.946Z,2.28
2023-03-24T00:49:10.242Z,2.50
2023-03-24T00:51:39.399Z,2.10
2023-03-24T00:54:08.786Z,2.22
2023-03-24T00:56:38.088Z,1.70
2023-03-24T00:59:05.062Z,2.28
2023-03-24T01:01:33.891Z,2.28
2023-03-24T01:04:00.830Z,2.00
2023-03-24T01:06:27.525Z,2.17
2023-03-24T01:08:54.422Z,2.97
2023-03-24T01:11:23.026Z,2.50
2023-03-24T01:13:50.845Z,2.15
2023-03-24T01:16:18.149Z,1.90
2023-03-24T01:18:45.530Z,2.60
2023-03-24T01:21:13.167Z,2.10
2023-03-24T01:23:40.037Z,2.40
2023-03-24T01:26:08.391Z,2.05
2023-03-24T01:28:36.230Z,1.63
2023-03-24T01:31:02.890Z,2.33
2023-03-24T01:33:29.623Z,1.98
2023-03-24T01:35:56.282Z,2.13
2023-03-24T01:38:22.919Z,2.45
2023-03-24T01:40:49.644Z,2.25
2023-03-24T01:43:20.298Z,2.00
2023-03-24T01:46:14.796Z,2.03
2023-03-24T01:48:50.639Z,1.55
2023-03-24T01:51:25.408Z,1.85
2023-03-24T01:53:59.535Z,2.50
2023-03-24T01:56:29.212Z,1.73
2023-03-24T01:59:03.676Z,2.05
2023-03-24T02:01:42.198Z,1.60
2023-03-24T02:04:34.835Z,1.90
2023-03-24T02:07:20.183Z,2.40
2023-03-24T02:09:47.019Z,1.52
2023-03-24T02:12:13.707Z,1.83
2023-03-24T02:14:42.488Z,1.80
2023-03-24T02:17:22.992Z,1.58
2023-03-24T02:20:10.842Z,1.73
2023-03-24T02:23:05.039Z,1.40
2023-03-24T02:25:44.541Z,1.70
2023-03-24T02:28:23.193Z,2.20
2023-03-24T02:30:52.444Z,1.45
2023-03-24T02:33:53.332Z,1.67
2023-03-24T02:36:40.344Z,1.92
2023-03-24T02:39:49.752Z,1.73
2023-03-24T02:42:53.394Z,2.28
2023-03-24T02:45:50.064Z,1.90
2023-03-24T02:48:27.746Z,1.85
2023-03-24T02:51:19.268Z,1.67
2023-03-24T02:54:05.539Z,2.05
2023-03-24T02:56:50.186Z,1.40
2023-03-24T02:59:37.821Z,1.67
2023-03-24T03:02:22.585Z,1.88
2023-03-24T03:05:00.709Z,1.50
2023-03-24T03:07:30.420Z,1.55
2023-03-24T03:10:24.068Z,1.65
2023-03-24T03:12:55.074Z,1.60
2023-03-24T03:15:29.695Z,1.88
2023-03-24T03:18:42.789Z,1.50
2023-03-24T03:21:15.859Z,1.63
2023-03-24T03:23:50.000Z,1.67
2023-03-24T03:26:19.628Z,1.90
2023-03-24T03:28:52.001Z,2.05
2023-03-24T03:31:30.684Z,1.70
2023-03-24T03:34:24.906Z,1.98
2023-03-24T03:37:05.744Z,2.10
2023-03-24T03:39:37.294Z,1.75
2023-03-24T03:42:08.579Z,1.95
2023-03-24T03:44:36.012Z,1.88
2023-03-24T03:47:02.900Z,1.90
2023-03-24T03:49:38.695Z,1.75
2023-03-24T03:52:05.698Z,1.60
2023-03-24T03:54:33.018Z,1.95
2023-03-24T03:57:00.488Z,1.83
2023-03-24T03:59:32.417Z,1.77
2023-03-24T04:02:14.237Z,1.90
2023-03-24T04:05:07.080Z,1.58
2023-03-24T04:08:15.328Z,1.75
2023-03-24T04:11:01.291Z,2.05
2023-03-24T04:13:34.984Z,1.90
2023-03-24T04:16:44.678Z,1.58
2023-03-24T04:19:33.068Z,2.40
2023-03-24T04:22:30.300Z,3.00
2023-03-24T04:25:38.654Z,1.90
2023-03-24T04:28:22.378Z,2.60
2023-03-24T04:30:59.505Z,2.50
2023-03-24T04:33:30.055Z,2.20
2023-03-24T04:36:09.722Z,2.42
2023-03-24T04:38:50.375Z,1.98
2023-03-24T04:41:32.180Z,2.45
2023-03-24T04:44:10.603Z,1.88
2023-03-24T04:46:53.575Z,2.30
2023-03-24T04:49:20.514Z,2.45
2023-03-24T04:51:48.164Z,2.03
2023-03-24T04:54:22.306Z,2.30
2023-03-24T04:56:56.592Z,2.70
2023-03-24T04:59:23.194Z,1.90
2023-03-24T05:01:50.574Z,2.15
2023-03-24T05:04:32.260Z,2.42
2023-03-24T05:07:06.706Z,2.67
2023-03-24T05:09:33.462Z,2.08
2023-03-24T05:14:32.307Z,1.98
2023-03-24T05:16:59.054Z,2.30
2023-03-24T05:19:25.768Z,2.83
2023-03-24T05:21:52.415Z,2.33
2023-03-24T05:24:19.566Z,1.90
2023-03-24T05:26:46.159Z,2.00
2023-03-24T05:29:16.888Z,2.40
2023-03-24T05:31:44.603Z,1.83
2023-03-24T05:34:16.130Z,3.38
2023-03-24T05:36:57.812Z,2.67
2023-03-24T05:39:24.608Z,2.00
2023-03-24T05:41:58.174Z,2.40
2023-03-24T05:44:24.874Z,2.28
2023-03-24T05:47:04.539Z,2.28
2023-03-24T05:49:31.348Z,2.20
2023-03-24T05:51:58.598Z,2.70
2023-03-24T05:54:25.465Z,2.97
2023-03-24T05:57:03.395Z,2.00
2023-03-24T05:59:34.340Z,2.42
2023-03-24T06:02:04.594Z,1.98
2023-03-24T06:04:44.760Z,2.05
2023-03-24T06:07:13.555Z,2.35
2023-03-24T06:09:43.024Z,2.10
2023-03-24T06:12:13.940Z,2.00
2023-03-24T06:14:49.412Z,2.33
2023-03-24T06:17:15.971Z,2.42
2023-03-24T06:19:45.611Z,2.30
2023-03-24T06:22:19.940Z,2.40
2023-03-24T06:24:47.214Z,2.00
2023-03-24T06:27:14.583Z,2.38
2023-03-24T06:29:41.732Z,2.40
2023-03-24T06:32:09.411Z,2.15
2023-03-24T06:34:41.372Z,2.50
2023-03-24T06:37:16.276Z,2.78
2023-03-24T06:39:43.182Z,2.15
2023-03-24T06:42:12.053Z,2.33
2023-03-24T06:44:38.878Z,2.03
2023-03-24T06:47:06.067Z,2.00
2023-03-24T06:49:33.635Z,1.92
2023-03-24T06:52:04.893Z,2.63
2023-03-24T06:54:35.519Z,2.60
2023-03-24T06:57:02.660Z,2.33
2023-03-24T06:59:49.247Z,2.33
2023-03-24T07:02:15.946Z,2.08
2023-03-24T07:04:45.099Z,1.95
2023-03-24T07:07:53.372Z,2.70
2023-03-24T07:10:24.164Z,2.40
2023-03-24T07:12:50.870Z,2.72
2023-03-24T07:15:17.721Z,2.22
2023-03-24T07:17:44.418Z,2.47
2023-03-24T07:20:20.270Z,1.88
2023-03-24T07:22:51.139Z,2.28
2023-03-24T07:25:35.487Z,1.70
2023-03-24T07:28:15.260Z,1.85
2023-03-24T07:30:41.969Z,2.75
2023-03-24T07:33:09.843Z,2.50
2023-03-24T07:35:36.544Z,2.10
2023-03-24T07:38:05.222Z,2.63
2023-03-24T07:40:31.923Z,2.30
2023-03-24T07:43:02.529Z,2.38
2023-03-24T07:45:37.245Z,3.45
2023-03-24T07:48:04.583Z,2.88
2023-03-24T07:50:35.736Z,2.58
2023-03-24T07:53:08.509Z,2.33
2023-03-24T07:55:38.885Z,2.15
2023-03-24T07:58:14.746Z,2.28
2023-03-24T08:00:54.712Z,3.25
2023-03-24T08:03:29.135Z,2.58
2023-03-24T08:06:15.167Z,2.35
2023-03-24T08:08:45.563Z,2.40
2023-03-24T08:11:12.233Z,2.38
2023-03-24T08:13:38.891Z,2.95
2023-03-24T08:16:05.755Z,2.58
2023-03-24T08:18:32.486Z,2.17
2023-03-24T08:20:59.351Z,2.33
2023-03-24T08:23:25.977Z,2.05
2023-03-24T08:25:52.635Z,2.17
2023-03-24T08:28:19.691Z,2.20
2023-03-24T08:30:46.654Z,3.05
2023-03-24T08:33:15.692Z,2.80
2023-03-24T08:35:43.180Z,3.00
2023-03-24T08:38:10.848Z,2.28
2023-03-24T08:40:39.073Z,2.90
2023-03-24T08:45:33.498Z,2.35
2023-03-24T08:48:02.800Z,2.28
2023-03-24T08:50:33.364Z,2.97
2023-03-24T08:53:00.934Z,3.00
2023-03-24T08:55:27.912Z,2.40
2023-03-24T08:57:54.565Z,2.47
2023-03-24T09:00:22.075Z,2.63
2023-03-24T09:02:51.265Z,2.95
2023-03-24T09:05:21.197Z,2.72
2023-03-24T09:07:51.648Z,2.60
2023-03-24T09:10:18.648Z,2.80
2023-03-24T09:12:46.381Z,2.55
2023-03-24T09:15:13.780Z,2.25
2023-03-24T09:17:40.701Z,2.07
2023-03-24T09:20:10.353Z,2.40
2023-03-24T09:22:39.090Z,3.35
2023-03-24T09:25:06.679Z,2.55
2023-03-24T09:27:33.862Z,2.75
2023-03-24T09:30:00.561Z,2.55
2023-03-24T09:32:27.529Z,2.10
2023-03-24T09:34:54.223Z,1.85
2023-03-24T09:37:20.817Z,2.55
2023-03-24T09:39:47.568Z,1.90
2023-03-24T09:42:25.014Z,2.17
2023-03-24T09:44:55.612Z,1.90
2023-03-24T09:47:31.721Z,1.77
2023-03-24T09:50:06.670Z,1.40
2023-03-24T09:52:43.087Z,1.63
2023-03-24T09:55:19.622Z,1.67
2023-03-24T09:57:49.484Z,1.35
2023-03-24T10:00:21.776Z,1.90
2023-03-24T10:02:51.926Z,1.77
2023-03-24T10:05:37.847Z,1.70
2023-03-24T10:08:24.613Z,2.13
2023-03-24T10:11:01.911Z,2.17
2023-03-24T10:13:40.107Z,1.67
2023-03-24T10:16:15.176Z,1.40
2023-03-24T10:19:26.800Z,1.70
2023-03-24T10:22:06.442Z,1.67
2023-03-24T10:24:42.293Z,1.58
2023-03-24T10:27:25.054Z,1.40
2023-03-24T10:29:57.697Z,1.52
2023-03-24T10:32:29.414Z,1.17
2023-03-24T10:34:59.876Z,1.60
2023-03-24T10:37:30.633Z,1.42
2023-03-24T10:40:12.196Z,1.95
2023-03-24T10:42:39.003Z,1.85
2023-03-24T10:45:06.468Z,1.70
2023-03-24T10:47:34.328Z,1.83
2023-03-24T10:50:12.662Z,1.75
2023-03-24T10:52:47.780Z,1.83
2023-03-24T10:55:19.628Z,1.60
2023-03-24T10:57:49.664Z,1.70
2023-03-24T11:00:23.048Z,1.80
2023-03-24T11:03:05.250Z,2.10
2023-03-24T11:05:34.875Z,1.80
2023-03-24T11:08:39.338Z,1.75
2023-03-24T11:11:24.263Z,1.92
2023-03-24T11:13:56.272Z,2.38
2023-03-24T11:16:36.893Z,2.67
2023-03-24T11:19:06.941Z,2.22
2023-03-24T11:21:37.111Z,1.80
2023-03-24T11:24:12.146Z,1.42
2023-03-24T11:26:40.781Z,1.80
2023-03-24T11:29:15.542Z,1.73
2023-03-24T11:31:42.593Z,1.50
2023-03-24T11:34:22.916Z,1.58
2023-03-24T11:36:54.572Z,2.13
2023-03-24T11:39:32.934Z,1.40
2023-03-24T11:42:11.601Z,1.45
2023-03-24T11:44:38.210Z,1.50
2023-03-24T11:47:17.108Z,1.48
2023-03-24T11:49:51.637Z,1.60
2023-03-24T11:52:31.950Z,1.77
2023-03-24T11:54:58.662Z,1.48
2023-03-24T11:57:41.384Z,1.90
2023-03-24T12:00:36.026Z,2.03
2023-03-24T12:03:22.231Z,2.03
2023-03-24T12:06:07.595Z,1.27
2023-03-24T12:08:50.342Z,2.25
2023-03-24T12:11:38.492Z,1.83
2023-03-24T12:14:05.872Z,1.40
2023-03-24T12:17:05.011Z,1.70
2023-03-24T12:19:42.943Z,2.05
2023-03-24T12:22:33.877Z,2.17
2023-03-24T12:25:27.089Z,2.25
2023-03-24T12:28:08.883Z,2.30
2023-03-24T12:30:44.343Z,2.22
2023-03-24T12:33:55.919Z,1.98
2023-03-24T12:36:31.294Z,1.90
2023-03-24T12:39:09.510Z,1.98
2023-03-24T12:41:51.923Z,2.00
2023-03-24T12:44:43.321Z,1.70
2023-03-24T12:47:44.094Z,2.17
2023-03-24T12:50:35.711Z,1.88
2023-03-24T12:53:14.312Z,2.20
2023-03-24T12:55:50.927Z,2.20
2023-03-24T12:58:39.224Z,2.13
2023-03-24T13:01:28.766Z,2.35
2023-03-24T13:04:13.404Z,2.40
2023-03-24T13:06:52.850Z,2.17
2023-03-24T13:09:40.758Z,2.22
2023-03-24T13:15:00.149Z,2.22
2023-03-24T13:18:02.435Z,2.17
2023-03-24T13:20:34.657Z,2.55
2023-03-24T13:23:24.416Z,2.35
2023-03-24T13:26:06.244Z,2.58
2023-03-24T13:28:42.542Z,2.38
2023-03-24T13:31:11.918Z,2.13
2023-03-24T13:33:40.625Z,2.38
2023-03-24T13:36:30.618Z,2.22
2023-03-24T13:39:02.816Z,2.30
2023-03-24T13:41:35.140Z,2.42
2023-03-24T13:44:07.558Z,1.92
2023-03-24T13:46:38.286Z,1.98
2023-03-24T13:49:09.015Z,1.70
2023-03-24T13:51:36.981Z,2.13
2023-03-24T13:54:12.332Z,1.70
2023-03-24T13:56:44.975Z,1.60
2023-03-24T13:59:11.832Z,1.88
2023-03-24T14:01:43.883Z,1.80
2023-03-24T14:04:19.225Z,1.92
2023-03-24T14:06:59.552Z,1.60
2023-03-24T14:09:31.547Z,1.73
2023-03-24T14:12:03.991Z,1.60
2023-03-24T14:14:34.130Z,1.92
2023-03-24T14:17:16.120Z,2.00
2023-03-24T14:20:02.620Z,1.60
2023-03-24T14:22:49.801Z,1.80
2023-03-24T14:25:16.340Z,1.05
2023-03-24T14:27:45.272Z,1.27
2023-03-24T14:30:28.189Z,1.10
2023-03-24T14:32:57.986Z,0.88
2023-03-24T14:35:43.974Z,0.98
2023-03-24T14:38:16.850Z,0.98
2023-03-24T14:40:46.912Z,0.57
2023-03-24T14:43:26.075Z,0.90
2023-03-24T14:45:57.101Z,1.05
2023-03-24T14:48:32.651Z,0.88
2023-03-24T14:51:06.683Z,0.52
2023-03-24T14:53:36.251Z,0.60
2023-03-24T14:56:03.995Z,0.70
2023-03-24T14:58:36.297Z,0.65
2023-03-24T15:01:07.727Z,0.43
2023-03-24T15:04:00.547Z,0.60
2023-03-24T15:06:27.290Z,0.57
2023-03-24T15:08:59.693Z,0.70
2023-03-24T15:11:33.578Z,0.82
2023-03-24T15:14:02.651Z,0.60
2023-03-24T15:16:34.473Z,0.68
2023-03-24T15:19:08.961Z,0.88
2023-03-24T15:21:39.017Z,0.70
2023-03-24T15:24:30.452Z,0.50
2023-03-24T15:27:06.000Z,0.60
2023-03-24T15:29:38.278Z,0.38
2023-03-24T15:32:05.869Z,0.60
2023-03-24T15:34:39.556Z,0.90
2023-03-24T15:37:18.803Z,0.80
2023-03-24T15:39:59.193Z,0.82
2023-03-24T15:42:32.908Z,0.52
2023-03-24T15:45:14.245Z,0.80
2023-03-24T15:47:40.983Z,0.70
2023-03-24T15:50:32.605Z,0.73
2023-03-24T15:53:05.456Z,0.55
2023-03-24T15:55:34.816Z,0.50
2023-03-24T15:58:20.231Z,0.60
2023-03-24T16:00:47.449Z,0.70
2023-03-24T16:03:14.916Z,0.63
2023-03-24T16:05:48.380Z,0.80
2023-03-24T16:08:32.449Z,0.57
2023-03-24T16:11:02.052Z,0.50
2023-03-24T16:13:28.598Z,0.73
2023-03-24T16:16:07.185Z,0.40
2023-03-24T16:18:39.041Z,0.80
2023-03-24T16:21:14.903Z,0.50
2023-03-24T16:23:41.977Z,0.50
2023-03-24T16:26:13.478Z,0.60
2023-03-24T16:28:40.190Z,0.80
2023-03-24T16:31:07.627Z,0.70
2023-03-24T16:33:34.304Z,1.05
2023-03-24T16:36:01.228Z,0.75
2023-03-24T16:38:27.978Z,1.42
2023-03-24T16:40:56.550Z,1.20
2023-03-24T16:43:25.841Z,1.20
2023-03-24T16:45:52.541Z,1.00
2023-03-24T16:48:19.201Z,0.85
2023-03-24T16:50:49.797Z,0.93
2023-03-24T16:53:16.507Z,0.82
2023-03-24T16:55:44.166Z,1.50
2023-03-24T16:58:12.678Z,0.85
2023-03-24T17:00:39.513Z,1.08
2023-03-24T17:03:07.044Z,0.93
2023-03-24T17:05:41.642Z,0.98
2023-03-24T17:08:08.230Z,0.90
2023-03-24T17:10:34.798Z,1.00
2023-03-24T17:13:01.387Z,1.20
2023-03-24T17:15:30.694Z,1.08
2023-03-24T17:17:57.382Z,1.13
2023-03-24T17:20:24.400Z,0.90
2023-03-24T17:22:53.883Z,1.45
2023-03-24T17:25:22.188Z,0.98
2023-03-24T17:27:49.658Z,0.95
2023-03-24T17:30:22.493Z,0.80
2023-03-24T17:32:49.368Z,0.90
2023-03-24T17:35:19.046Z,0.85
2023-03-24T17:37:46.347Z,1.00
2023-03-24T17:40:15.642Z,0.63
2023-03-24T17:42:46.209Z,1.00
2023-03-24T17:45:16.283Z,0.93
2023-03-24T17:47:43.768Z,1.17
2023-03-24T17:50:11.416Z,1.73
2023-03-24T17:52:45.910Z,0.80
2023-03-24T17:55:13.498Z,0.80
2023-03-24T17:57:40.366Z,0.77
2023-03-24T18:00:08.251Z,0.95
2023-03-24T18:05:01.674Z,0.93
2023-03-24T18:07:28.422Z,1.23
2023-03-24T18:09:55.035Z,1.05
2023-03-24T18:12:21.593Z,0.40
2023-03-24T18:14:48.275Z,0.80
2023-03-24T18:17:15.278Z,0.68
2023-03-24T18:19:42.051Z,0.70
2023-03-24T18:22:09.157Z,0.90
2023-03-24T18:24:35.861Z,0.63
2023-03-24T18:27:03.397Z,0.55
2023-03-24T18:29:30.283Z,0.80
2023-03-24T18:31:56.952Z,0.60
2023-03-24T18:34:23.670Z,0.60
2023-03-24T18:36:50.228Z,0.68
2023-03-24T18:39:16.852Z,0.60
2023-03-24T18:41:43.592Z,0.50
2023-03-24T18:44:12.747Z,1.13
2023-03-24T18:46:39.659Z,0.52
2023-03-24T18:49:06.644Z,0.50
2023-03-24T18:51:33.279Z,0.65
2023-03-24T18:53:59.872Z,0.70
2023-03-24T18:56:26.465Z,0.95
2023-03-24T18:58:53.142Z,0.38
2023-03-24T19:01:21.486Z,0.60
2023-03-24T19:03:49.771Z,1.92
2023-03-24T19:06:16.608Z,0.68
2023-03-24T19:08:46.378Z,0.50
2023-03-24T19:11:14.713Z,0.70
2023-03-24T19:13:41.736Z,0.70
2023-03-24T19:16:10.206Z,0.73
2023-03-24T19:18:37.412Z,0.95
2023-03-24T19:21:04.940Z,0.90
2023-03-24T19:23:31.587Z,0.82
2023-03-24T19:25:58.171Z,0.65
2023-03-24T19:28:27.900Z,0.65
2023-03-24T19:30:55.630Z,0.70
2023-03-24T19:33:22.381Z,0.90
2023-03-24T19:35:50.912Z,0.55
2023-03-24T19:38:19.572Z,0.95
2023-03-24T19:40:46.197Z,0.60
2023-03-24T19:43:12.791Z,0.70
2023-03-24T19:45:39.478Z,0.75
2023-03-24T19:48:06.114Z,0.50
2023-03-24T19:50:32.791Z,0.60
2023-03-24T19:52:59.417Z,0.88
2023-03-24T19:55:26.118Z,0.75
2023-03-24T19:57:55.781Z,0.55
2023-03-24T20:00:22.527Z,0.80
2023-03-24T20:02:49.257Z,0.60
2023-03-24T20:05:16.800Z,0.60
2023-03-24T20:07:43.529Z,0.45
2023-03-24T20:10:10.539Z,0.50
2023-03-24T20:12:37.371Z,0.70
2023-03-24T20:15:04.710Z,0.60
2023-03-24T20:17:31.494Z,0.68
2023-03-24T20:19:58.144Z,0.40
2023-03-24T20:22:25.133Z,0.85
2023-03-24T20:24:51.775Z,0.50
2023-03-24T20:27:19.059Z,0.60
2023-03-24T20:29:45.717Z,0.60
2023-03-24T20:32:12.520Z,0.70
2023-03-24T20:34:39.207Z,0.52
2023-03-24T20:37:06.842Z,0.65
2023-03-24T20:39:33.450Z,0.68
2023-03-24T20:42:00.799Z,0.40
2023-03-24T20:44:27.752Z,0.97
2023-03-24T20:46:54.334Z,0.80
2023-03-24T20:49:20.937Z,0.88
2023-03-24T20:51:47.496Z,0.57
2023-03-24T20:54:14.117Z,0.50
2023-03-24T20:56:40.833Z,0.40
2023-03-24T20:59:07.431Z,0.40
2023-03-24T21:01:34.960Z,0.50
2023-03-24T21:04:09.122Z,0.52
2023-03-24T21:06:37.539Z,0.70
2023-03-24T21:11:31.744Z,0.93
2023-03-24T21:13:59.097Z,0.70
2023-03-24T21:16:26.256Z,0.60
2023-03-24T21:18:53.719Z,0.45
2023-03-24T21:21:20.753Z,0.90
2023-03-24T21:23:47.590Z,0.40
2023-03-24T21:26:16.527Z,0.60
2023-03-24T21:28:43.991Z,0.50
2023-03-24T21:31:20.259Z,0.70
2023-03-24T21:33:47.042Z,0.60
2023-03-24T21:36:14.579Z,0.60
2023-03-24T21:38:41.735Z,0.50
2023-03-24T21:41:08.754Z,0.43
2023-03-24T21:43:36.273Z,0.82
2023-03-24T21:46:03.381Z,0.52
2023-03-24T21:48:31.069Z,0.53
2023-03-24T21:50:57.807Z,0.50
2023-03-24T21:53:24.740Z,0.40
2023-03-24T21:55:52.514Z,0.50
2023-03-24T21:58:19.890Z,0.73
2023-03-24T22:00:47.544Z,0.40
2023-03-24T22:03:16.630Z,1.13
2023-03-24T22:05:43.314Z,0.60
2023-03-24T22:08:10.277Z,0.47
2023-03-24T22:10:36.836Z,0.50
2023-03-24T22:13:04.370Z,0.40
2023-03-24T22:15:33.066Z,0.30
2023-03-24T22:18:00.856Z,0.30
2023-03-24T22:20:27.600Z,0.40
2023-03-24T22:22:54.468Z,0.52
2023-03-24T22:25:21.196Z,0.50
2023-03-24T22:27:47.747Z,0.50
2023-03-24T22:30:15.267Z,0.30
2023-03-24T22:32:41.981Z,0.50
2023-03-24T22:35:09.110Z,0.43
2023-03-24T22:37:35.727Z,0.40
2023-03-24T22:40:02.528Z,0.50
2023-03-24T22:42:29.345Z,0.38
2023-03-24T22:44:55.974Z,0.70
2023-03-24T22:47:22.926Z,0.63
2023-03-24T22:49:49.653Z,0.50
2023-03-24T22:52:16.470Z,0.40
2023-03-24T22:54:43.073Z,0.82
2023-03-24T22:57:09.716Z,0.47
2023-03-24T22:59:36.326Z,0.40
2023-03-24T23:02:09.324Z,0.60
2023-03-24T23:04:37.235Z,0.77
2023-03-24T23:07:03.983Z,0.40
2023-03-24T23:09:30.549Z,0.60
2023-03-24T23:11:57.183Z,0.63
2023-03-24T23:14:23.807Z,0.75
2023-03-24T23:16:50.456Z,0.40
2023-03-24T23:19:17.210Z,0.30
2023-03-24T23:21:43.814Z,0.65
2023-03-24T23:24:10.503Z,0.50
2023-03-24T23:26:37.064Z,0.50
2023-03-24T23:29:03.721Z,1.08
2023-03-24T23:31:30.384Z,0.75
2023-03-24T23:33:58.195Z,0.50
2023-03-24T23:36:25.260Z,0.55
2023-03-24T23:38:52.903Z,0.50
2023-03-24T23:41:20.646Z,0.50
2023-03-24T23:43:49.136Z,0.60
2023-03-24T23:46:16.736Z,0.60
2023-03-24T23:48:43.435Z,0.80
2023-03-24T23:51:10.358Z,0.68
2023-03-24T23:53:37.212Z,0.60
2023-03-24T23:56:06.782Z,0.50
2023-03-24T23:58:36.313Z,0.40
